Surgut Airport
USRR : now visible

Airfield :











YOU CAN JOIN US ON...

 
LOGIN :

Register | Disclaimer

   EN    FR    IT 

 









Legend :    VFR   Marginal VFR   IFR   Intensive IFR   Very Intensive IFR
Visi :
Ceiling :
>= 8 km
>= 3000ft
5 to 8 km
1000 to 3000 ft
1500m to 5 km
500 to 1000 ft
800 to 1500m
200 to 500 ft
< 800m
< 200 ft
Symbols :   Thunderstorms  Fog  Heavy snow  Heavy precipitations  Wind > 20 kt






- Airport Elevation : 200 ft
- IATA code : SGC


USRR - Surgut

CURRENT METAR :
  • 021530Z 24008MPS 9999 -SHRASN SCT007 BKN019CB 02/02 Q0991 R25/250250 NOSIG RMK QFE738

EXPIRED METARs :
  • 021500Z 23007MPS 9999 -SHRASN SCT007 BKN019CB 02/02 Q0991 R25/250250 NOSIG RMK QFE738
  • 021430Z 23006MPS 9999 SCT008 BKN019CB 02/02 Q0990 R25/250250 NOSIG RMK QFE738
  • 021400Z 23007MPS 9999 SCT008 BKN019CB 02/02 Q0990 R25/250250 NOSIG RMK QFE737
  • 021330Z 22005MPS 9999 -SHRA SCT010 BKN019CB 02/02 Q0989 R25/250250 NOSIG RMK QFE737
  • 021300Z 22006MPS 9000 -SHRA SCT010 BKN019CB 03/03 Q0989 R25/250250 NOSIG RMK QFE737

TAF TAF USRR
Valid from the 02 at 15:00 until the 03 at 15:00 UTC


021355Z 0215/0315 24006G13MPS 3100 -SHSN BKN005 BKN016CB
TEMPO 0215/0224 0800 +SHSN VV003
BECMG 0217/0218 28006G13MPS
FM030000 22007G14MPS 9999 SCT016



MET'MAP, your aeronautical weather chart ! - Copyright ORBIFLY December 2007 - Disclaimer

ORBIFLY MET'MAP TEAM :

Programming & Development : Alexandra Zaïnal
Concept & original design : Baudouin d'Aumeries
Assistance for programming : Marc-Olivier Méhu
Technical & hardware support : Manuel Goepfert

Contact : metmap@orbifly.com




SOURCES & CREDITS :

   NOAA       Earth
Advisory